Overseas Milos — V7WR8 — position and weather

sailwx.info

Track history (hours):
 
Tides and Currents Weather Stations Pressure Air Temp Water Temp Dewpoint Dewpoint Depression Visibility Wind Speed Wind Dir Waves Ship Positions

Overseas Milos

Last reported at 2016-Aug-29 20:33 UTC. Time now 2016-Aug-29 21:31 UTC.
Position N 38°28' W 008°49'.

Length 183 m; draft 6.5 m.

Type: Tanker. MMSI: 538004376.

Date/timePositionNaut miles runAvg speedWind from/ knotsBaromVisibWave heightAir tempDewpointWater temp
2016-Aug-29 20:33N 38°28' W 008°49'0 0.0
2016-Aug-29 18:33N 38°28' W 008°49'0 0.0
2016-Aug-29 17:33N 38°28' W 008°49'0 0.0
2016-Aug-29 16:33N 38°28' W 008°49'0 0.0
2016-Aug-29 15:30N 38°28' W 008°49'0 0.0
2016-Aug-29 14:33N 38°28' W 008°49'0 0.0
2016-Aug-29 13:27N 38°28' W 008°49'0 0.0
2016-Aug-29 12:33N 38°28' W 008°49'4 3.5
2016-Aug-29 11:33N 38°29' W 008°53'8 7.7
2016-Aug-29 10:33N 38°25' W 009°01'5 4.7
2016-Aug-29 09:33N 38°20' W 009°03'5 4.7
2016-Aug-29 08:33N 38°16' W 008°60'1 1.3
2016-Aug-29 07:33N 38°17' W 009°01'1 1.2
2016-Aug-29 06:33N 38°17' W 009°03'1 1.1
2016-Aug-29 05:33N 38°17' W 009°04'1 1.0
2016-Aug-29 04:33N 38°17' W 009°05'1 1.2
2016-Aug-29 03:33N 38°17' W 009°07'1010.5
2016-Aug-29 02:33N 38°19' W 009°20'1111.4
2016-Aug-29 01:33N 38°15' W 009°34'1110.6
2016-Aug-29 00:33N 38°13' W 009°47'1110.9
2016-Aug-28 23:33N 38°11' W 010°01'1110.8
2016-Aug-28 22:33N 38°10' W 010°14'1111.1
2016-Aug-28 21:33N 38°07' W 010°28'1111.3
2016-Aug-28 20:33N 38°04' W 010°42'1111.3
2016-Aug-28 19:33N 38°03' W 010°56'1111.4
2016-Aug-28 18:33N 37°60' W 011°10'12411.3
2016-Aug-28 07:32N 37°34' W 013°44'49310.7
2016-Aug-26 09:26N 35°54' W 023°47'1211.8
2016-Aug-26 08:26N 35°49' W 024°00'1011.6
2016-Aug-26 07:33N 35°45' W 024°12'1211.5
2016-Aug-26 06:33N 35°43' W 024°26'2311.6
2016-Aug-26 04:32N 35°38' W 024°54'1111.3
2016-Aug-26 03:33N 35°35' W 025°07'1311.5
2016-Aug-26 02:23N 35°33' W 025°23'1011.5
2016-Aug-26 01:33N 35°31' W 025°35'1211.3
2016-Aug-26 00:30N 35°28' W 025°49'1111.7
2016-Aug-25 23:33N 35°26' W 026°02'1312.2
2016-Aug-25 22:31N 35°23' W 026°17'1311.9
2016-Aug-25 21:26N 35°20' W 026°33'1111.7
2016-Aug-25 20:31N 35°18' W 026°45'  
Track history (hours):
 
Tides and Currents Weather Stations Pressure Air Temp Water Temp Dewpoint Dewpoint Depression Visibility Wind Speed Wind Dir Waves Ship Positions

Overseas Milos

Last reported at 2016-Aug-29 20:33 UTC. Time now 2016-Aug-29 21:31 UTC.
Position N 38°28' W 008°49'.

Length 183 m; draft 6.5 m.

Type: Tanker. MMSI: 538004376.

Date/timePositionNaut miles runAvg speedWind from/ knotsBaromVisibWave heightAir tempDewpointWater temp
2016-Aug-29 20:33N 38°28' W 008°49'0 0.0
2016-Aug-29 18:33N 38°28' W 008°49'0 0.0
2016-Aug-29 17:33N 38°28' W 008°49'0 0.0
2016-Aug-29 16:33N 38°28' W 008°49'0 0.0
2016-Aug-29 15:30N 38°28' W 008°49'0 0.0
2016-Aug-29 14:33N 38°28' W 008°49'0 0.0
2016-Aug-29 13:27N 38°28' W 008°49'0 0.0
2016-Aug-29 12:33N 38°28' W 008°49'4 3.5
2016-Aug-29 11:33N 38°29' W 008°53'8 7.7
2016-Aug-29 10:33N 38°25' W 009°01'5 4.7
2016-Aug-29 09:33N 38°20' W 009°03'5 4.7
2016-Aug-29 08:33N 38°16' W 008°60'1 1.3
2016-Aug-29 07:33N 38°17' W 009°01'1 1.2
2016-Aug-29 06:33N 38°17' W 009°03'1 1.1
2016-Aug-29 05:33N 38°17' W 009°04'1 1.0
2016-Aug-29 04:33N 38°17' W 009°05'1 1.2
2016-Aug-29 03:33N 38°17' W 009°07'1010.5
2016-Aug-29 02:33N 38°19' W 009°20'1111.4
2016-Aug-29 01:33N 38°15' W 009°34'1110.6
2016-Aug-29 00:33N 38°13' W 009°47'1110.9
2016-Aug-28 23:33N 38°11' W 010°01'1110.8
2016-Aug-28 22:33N 38°10' W 010°14'1111.1
2016-Aug-28 21:33N 38°07' W 010°28'1111.3
2016-Aug-28 20:33N 38°04' W 010°42'1111.3
2016-Aug-28 19:33N 38°03' W 010°56'1111.4
2016-Aug-28 18:33N 37°60' W 011°10'12411.3
2016-Aug-28 07:32N 37°34' W 013°44'49310.7
2016-Aug-26 09:26N 35°54' W 023°47'1211.8
2016-Aug-26 08:26N 35°49' W 024°00'1011.6
2016-Aug-26 07:33N 35°45' W 024°12'1211.5
2016-Aug-26 06:33N 35°43' W 024°26'2311.6
2016-Aug-26 04:32N 35°38' W 024°54'1111.3
2016-Aug-26 03:33N 35°35' W 025°07'1311.5
2016-Aug-26 02:23N 35°33' W 025°23'1011.5
2016-Aug-26 01:33N 35°31' W 025°35'1211.3
2016-Aug-26 00:30N 35°28' W 025°49'1111.7
2016-Aug-25 23:33N 35°26' W 026°02'1312.2
2016-Aug-25 22:31N 35°23' W 026°17'1311.9
2016-Aug-25 21:26N 35°20' W 026°33'1111.7
2016-Aug-25 20:31N 35°18' W 026°45'  

Dump ship's entire track history